sensor_id;sensor_type;location;lat;lon;timestamp;pressure;altitude;pressure_sealevel;temperature;humidity
32324;BME280;25666;44.350;9.222;2023-04-07T00:00:18;101764.97;;;9.15;100.00
32324;BME280;25666;44.350;9.222;2023-04-07T00:02:43;101763.19;;;9.19;100.00
32324;BME280;25666;44.350;9.222;2023-04-07T00:05:09;101766.41;;;9.12;100.00
32324;BME280;25666;44.350;9.222;2023-04-07T00:07:34;101758.31;;;9.02;100.00
32324;BME280;25666;44.350;9.222;2023-04-07T00:10:00;101754.22;;;9.00;100.00
32324;BME280;25666;44.350;9.222;2023-04-07T00:12:25;101754.75;;;9.02;100.00
32324;BME280;25666;44.350;9.222;2023-04-07T00:14:51;101769.34;;;8.72;100.00
32324;BME280;25666;44.350;9.222;2023-04-07T00:17:16;101761.84;;;8.72;100.00
32324;BME280;25666;44.350;9.222;2023-04-07T00:19:42;101763.59;;;8.68;100.00
32324;BME280;25666;44.350;9.222;2023-04-07T00:22:08;101761.38;;;8.56;100.00
32324;BME280;25666;44.350;9.222;2023-04-07T00:24:34;101766.63;;;8.58;100.00
32324;BME280;25666;44.350;9.222;2023-04-07T00:26:59;101759.16;;;8.45;100.00
32324;BME280;25666;44.350;9.222;2023-04-07T00:29:25;101759.97;;;8.45;100.00
32324;BME280;25666;44.350;9.222;2023-04-07T00:31:51;101763.25;;;8.47;100.00
32324;BME280;25666;44.350;9.222;2023-04-07T00:34:17;101768.19;;;8.37;100.00
32324;BME280;25666;44.350;9.222;2023-04-07T00:36:43;101766.25;;;8.37;100.00
32324;BME280;25666;44.350;9.222;2023-04-07T00:39:08;101764.06;;;8.48;100.00
32324;BME280;25666;44.350;9.222;2023-04-07T00:41:40;101757.78;;;8.56;100.00
32324;BME280;25666;44.350;9.222;2023-04-07T00:44:06;101765.81;;;8.44;100.00
32324;BME280;25666;44.350;9.222;2023-04-07T00:46:32;101765.63;;;8.27;100.00
32324;BME280;25666;44.350;9.222;2023-04-07T00:48:57;101768.69;;;8.12;100.00
32324;BME280;25666;44.350;9.222;2023-04-07T00:51:25;101762.84;;;8.13;100.00
32324;BME280;25666;44.350;9.222;2023-04-07T00:53:51;101771.16;;;8.13;100.00
32324;BME280;25666;44.350;9.222;2023-04-07T00:56:18;101756.28;;;8.36;100.00
32324;BME280;25666;44.350;9.222;2023-04-07T00:58:44;101764.72;;;8.31;100.00
32324;BME280;25666;44.350;9.222;2023-04-07T01:01:15;101762.16;;;8.35;100.00
32324;BME280;25666;44.350;9.222;2023-04-07T01:03:58;101759.50;;;8.30;100.00
32324;BME280;25666;44.350;9.222;2023-04-07T01:06:29;101760.19;;;8.35;100.00
32324;BME280;25666;44.350;9.222;2023-04-07T01:11:43;101753.00;;;8.34;100.00
32324;BME280;25666;44.350;9.222;2023-04-07T01:14:17;101770.56;;;8.16;100.00
32324;BME280;25666;44.350;9.222;2023-04-07T01:16:48;101768.69;;;8.25;100.00
32324;BME280;25666;44.350;9.222;2023-04-07T01:19:38;101757.00;;;8.42;100.00
32324;BME280;25666;44.350;9.222;2023-04-07T01:22:12;101762.63;;;8.50;100.00
32324;BME280;25666;44.350;9.222;2023-04-07T01:27:58;101752.16;;;8.47;100.00
32324;BME280;25666;44.350;9.222;2023-04-07T01:30:31;101748.63;;;8.55;100.00
32324;BME280;25666;44.350;9.222;2023-04-07T01:32:59;101747.28;;;8.67;100.00
32324;BME280;25666;44.350;9.222;2023-04-07T01:35:28;101747.38;;;8.61;100.00
32324;BME280;25666;44.350;9.222;2023-04-07T01:37:55;101750.91;;;8.40;100.00
32324;BME280;25666;44.350;9.222;2023-04-07T01:40:22;101755.78;;;8.34;100.00
32324;BME280;25666;44.350;9.222;2023-04-07T01:42:50;101750.28;;;8.43;100.00
32324;BME280;25666;44.350;9.222;2023-04-07T01:45:17;101755.16;;;8.37;100.00
32324;BME280;25666;44.350;9.222;2023-04-07T01:47:43;101741.56;;;8.49;100.00
32324;BME280;25666;44.350;9.222;2023-04-07T01:50:10;101734.59;;;8.52;100.00
32324;BME280;25666;44.350;9.222;2023-04-07T01:52:37;101748.25;;;8.48;100.00
32324;BME280;25666;44.350;9.222;2023-04-07T01:55:04;101747.94;;;8.50;100.00
32324;BME280;25666;44.350;9.222;2023-04-07T01:57:32;101749.44;;;8.56;100.00
32324;BME280;25666;44.350;9.222;2023-04-07T02:00:04;101750.97;;;8.62;100.00
32324;BME280;25666;44.350;9.222;2023-04-07T02:02:43;101762.81;;;8.68;100.00
32324;BME280;25666;44.350;9.222;2023-04-07T02:05:12;101757.25;;;8.68;100.00
32324;BME280;25666;44.350;9.222;2023-04-07T02:07:51;101761.03;;;8.72;100.00
32324;BME280;25666;44.350;9.222;2023-04-07T02:10:21;101760.19;;;8.71;100.00
32324;BME280;25666;44.350;9.222;2023-04-07T02:12:47;101753.38;;;8.77;100.00
32324;BME280;25666;44.350;9.222;2023-04-07T02:15:17;101753.97;;;8.88;100.00
32324;BME280;25666;44.350;9.222;2023-04-07T02:17:48;101745.72;;;8.96;100.00
32324;BME280;25666;44.350;9.222;2023-04-07T02:20:17;101749.31;;;8.97;100.00
32324;BME280;25666;44.350;9.222;2023-04-07T02:22:45;101745.34;;;8.89;100.00
32324;BME280;25666;44.350;9.222;2023-04-07T02:25:27;101748.75;;;8.86;100.00
32324;BME280;25666;44.350;9.222;2023-04-07T02:27:54;101754.41;;;8.81;100.00
32324;BME280;25666;44.350;9.222;2023-04-07T02:30:21;101745.50;;;8.93;100.00
32324;BME280;25666;44.350;9.222;2023-04-07T02:32:46;101746.88;;;8.95;100.00
32324;BME280;25666;44.350;9.222;2023-04-07T02:35:14;101742.19;;;9.04;100.00
32324;BME280;25666;44.350;9.222;2023-04-07T02:37:41;101745.47;;;9.06;100.00
32324;BME280;25666;44.350;9.222;2023-04-07T02:40:07;101746.16;;;9.12;100.00
32324;BME280;25666;44.350;9.222;2023-04-07T02:42:32;101743.25;;;9.17;100.00
32324;BME280;25666;44.350;9.222;2023-04-07T02:44:58;101741.84;;;9.06;100.00
32324;BME280;25666;44.350;9.222;2023-04-07T02:47:24;101743.50;;;9.07;100.00
32324;BME280;25666;44.350;9.222;2023-04-07T02:49:50;101764.03;;;8.97;100.00
32324;BME280;25666;44.350;9.222;2023-04-07T02:52:15;101764.63;;;8.72;100.00
32324;BME280;25666;44.350;9.222;2023-04-07T02:54:41;101768.94;;;8.65;100.00
32324;BME280;25666;44.350;9.222;2023-04-07T02:57:09;101765.88;;;8.66;100.00
32324;BME280;25666;44.350;9.222;2023-04-07T02:59:34;101758.16;;;8.77;100.00
32324;BME280;25666;44.350;9.222;2023-04-07T03:02:00;101751.00;;;8.84;100.00
32324;BME280;25666;44.350;9.222;2023-04-07T03:04:26;101739.41;;;8.82;100.00
32324;BME280;25666;44.350;9.222;2023-04-07T03:06:52;101739.41;;;8.82;100.00
32324;BME280;25666;44.350;9.222;2023-04-07T03:09:18;101739.69;;;8.81;100.00
32324;BME280;25666;44.350;9.222;2023-04-07T03:11:44;101735.31;;;8.80;100.00
32324;BME280;25666;44.350;9.222;2023-04-07T03:14:10;101733.66;;;8.79;100.00
32324;BME280;25666;44.350;9.222;2023-04-07T03:16:43;101722.56;;;8.79;100.00
32324;BME280;25666;44.350;9.222;2023-04-07T03:19:11;101734.47;;;8.79;100.00
32324;BME280;25666;44.350;9.222;2023-04-07T03:21:41;101739.88;;;8.62;100.00
32324;BME280;25666;44.350;9.222;2023-04-07T03:24:07;101738.78;;;8.49;100.00
32324;BME280;25666;44.350;9.222;2023-04-07T03:26:33;101744.13;;;8.46;100.00
32324;BME280;25666;44.350;9.222;2023-04-07T03:29:00;101741.91;;;8.34;100.00
32324;BME280;25666;44.350;9.222;2023-04-07T03:31:28;101750.41;;;8.38;100.00
32324;BME280;25666;44.350;9.222;2023-04-07T03:33:55;101744.38;;;8.36;100.00
32324;BME280;25666;44.350;9.222;2023-04-07T03:36:21;101739.44;;;8.33;100.00
32324;BME280;25666;44.350;9.222;2023-04-07T03:38:47;101739.84;;;8.26;100.00
32324;BME280;25666;44.350;9.222;2023-04-07T03:41:14;101737.19;;;8.35;100.00
32324;BME280;25666;44.350;9.222;2023-04-07T03:43:40;101735.03;;;8.32;100.00
32324;BME280;25666;44.350;9.222;2023-04-07T03:46:06;101730.50;;;8.36;100.00
32324;BME280;25666;44.350;9.222;2023-04-07T03:48:31;101734.19;;;8.31;100.00
32324;BME280;25666;44.350;9.222;2023-04-07T03:51:04;101730.00;;;8.20;100.00
32324;BME280;25666;44.350;9.222;2023-04-07T03:53:31;101731.03;;;8.11;100.00
32324;BME280;25666;44.350;9.222;2023-04-07T03:55:57;101724.75;;;8.19;100.00
32324;BME280;25666;44.350;9.222;2023-04-07T03:58:38;101729.69;;;8.08;100.00
32324;BME280;25666;44.350;9.222;2023-04-07T04:01:10;101714.69;;;8.09;100.00
32324;BME280;25666;44.350;9.222;2023-04-07T04:03:36;101721.38;;;8.08;100.00
32324;BME280;25666;44.350;9.222;2023-04-07T04:06:17;101714.19;;;8.07;100.00
32324;BME280;25666;44.350;9.222;2023-04-07T04:08:42;101709.97;;;8.09;100.00
32324;BME280;25666;44.350;9.222;2023-04-07T04:11:08;101701.78;;;7.91;100.00
32324;BME280;25666;44.350;9.222;2023-04-07T04:13:41;101706.59;;;7.85;100.00
32324;BME280;25666;44.350;9.222;2023-04-07T04:16:07;101715.41;;;7.74;100.00
32324;BME280;25666;44.350;9.222;2023-04-07T04:18:34;101716.16;;;7.66;100.00
32324;BME280;25666;44.350;9.222;2023-04-07T04:21:00;101720.38;;;7.77;100.00
32324;BME280;25666;44.350;9.222;2023-04-07T04:23:26;101717.28;;;7.51;100.00
32324;BME280;25666;44.350;9.222;2023-04-07T04:25:53;101725.97;;;7.44;100.00
32324;BME280;25666;44.350;9.222;2023-04-07T04:28:19;101724.66;;;7.55;100.00
32324;BME280;25666;44.350;9.222;2023-04-07T04:30:44;101717.69;;;7.72;100.00
32324;BME280;25666;44.350;9.222;2023-04-07T04:33:10;101723.25;;;7.85;100.00
32324;BME280;25666;44.350;9.222;2023-04-07T04:35:44;101723.44;;;7.89;100.00
32324;BME280;25666;44.350;9.222;2023-04-07T04:38:13;101718.19;;;7.87;100.00
32324;BME280;25666;44.350;9.222;2023-04-07T04:40:44;101722.59;;;8.02;100.00
32324;BME280;25666;44.350;9.222;2023-04-07T04:43:11;101724.25;;;8.17;100.00
32324;BME280;25666;44.350;9.222;2023-04-07T04:45:38;101722.16;;;8.22;100.00
32324;BME280;25666;44.350;9.222;2023-04-07T04:48:06;101717.06;;;8.29;100.00
32324;BME280;25666;44.350;9.222;2023-04-07T04:50:31;101722.28;;;8.31;100.00
32324;BME280;25666;44.350;9.222;2023-04-07T04:52:58;101717.66;;;8.26;100.00
32324;BME280;25666;44.350;9.222;2023-04-07T04:55:24;101717.75;;;8.21;100.00
32324;BME280;25666;44.350;9.222;2023-04-07T04:57:51;101711.91;;;8.23;100.00
32324;BME280;25666;44.350;9.222;2023-04-07T05:00:24;101724.03;;;8.27;100.00
32324;BME280;25666;44.350;9.222;2023-04-07T05:02:56;101712.53;;;8.20;100.00
32324;BME280;25666;44.350;9.222;2023-04-07T05:05:21;101716.63;;;8.22;100.00
32324;BME280;25666;44.350;9.222;2023-04-07T05:07:49;101718.38;;;8.32;100.00
32324;BME280;25666;44.350;9.222;2023-04-07T05:10:15;101721.84;;;8.37;100.00
32324;BME280;25666;44.350;9.222;2023-04-07T05:12:49;101717.97;;;8.38;100.00
32324;BME280;25666;44.350;9.222;2023-04-07T05:15:15;101717.47;;;8.36;100.00
32324;BME280;25666;44.350;9.222;2023-04-07T05:17:43;101725.84;;;8.45;100.00
32324;BME280;25666;44.350;9.222;2023-04-07T05:20:14;101721.84;;;8.37;100.00
32324;BME280;25666;44.350;9.222;2023-04-07T05:22:40;101724.91;;;8.49;100.00
32324;BME280;25666;44.350;9.222;2023-04-07T05:25:09;101713.38;;;8.56;100.00
32324;BME280;25666;44.350;9.222;2023-04-07T05:27:36;101721.41;;;8.57;100.00
32324;BME280;25666;44.350;9.222;2023-04-07T05:30:08;101718.31;;;8.59;100.00
32324;BME280;25666;44.350;9.222;2023-04-07T05:32:34;101712.13;;;8.62;100.00
32324;BME280;25666;44.350;9.222;2023-04-07T05:35:06;101709.69;;;8.60;100.00
32324;BME280;25666;44.350;9.222;2023-04-07T05:37:34;101698.63;;;8.69;100.00
32324;BME280;25666;44.350;9.222;2023-04-07T05:40:03;101701.22;;;8.88;100.00
32324;BME280;25666;44.350;9.222;2023-04-07T05:42:28;101701.22;;;8.88;100.00
32324;BME280;25666;44.350;9.222;2023-04-07T05:44:59;101707.47;;;8.93;100.00
32324;BME280;25666;44.350;9.222;2023-04-07T05:47:26;101701.38;;;9.05;100.00
32324;BME280;25666;44.350;9.222;2023-04-07T05:49:53;101697.31;;;9.11;100.00
32324;BME280;25666;44.350;9.222;2023-04-07T05:52:21;101703.66;;;9.11;100.00
32324;BME280;25666;44.350;9.222;2023-04-07T06:05:39;101709.53;;;9.32;100.00
32324;BME280;25666;44.350;9.222;2023-04-07T06:10:53;101706.47;;;9.42;100.00
32324;BME280;25666;44.350;9.222;2023-04-07T06:13:20;101708.81;;;9.49;100.00
32324;BME280;25666;44.350;9.222;2023-04-07T06:15:46;101702.44;;;9.57;100.00
32324;BME280;25666;44.350;9.222;2023-04-07T07:04:54;101683.91;;;11.38;100.00
32324;BME280;25666;44.350;9.222;2023-04-07T07:07:20;101673.38;;;11.05;100.00
32324;BME280;25666;44.350;9.222;2023-04-07T07:09:45;101675.34;;;11.05;100.00
32324;BME280;25666;44.350;9.222;2023-04-07T07:12:10;101669.91;;;11.08;100.00
32324;BME280;25666;44.350;9.222;2023-04-07T07:14:36;101684.50;;;11.05;100.00
32324;BME280;25666;44.350;9.222;2023-04-07T07:17:01;101684.00;;;11.03;100.00
32324;BME280;25666;44.350;9.222;2023-04-07T07:19:27;101673.19;;;11.10;100.00
32324;BME280;25666;44.350;9.222;2023-04-07T07:21:53;101684.81;;;11.21;100.00
32324;BME280;25666;44.350;9.222;2023-04-07T07:24:19;101672.97;;;11.33;100.00
32324;BME280;25666;44.350;9.222;2023-04-07T07:26:45;101671.19;;;11.66;100.00
32324;BME280;25666;44.350;9.222;2023-04-07T07:29:10;101681.28;;;12.38;100.00
32324;BME280;25666;44.350;9.222;2023-04-07T07:31:36;101668.66;;;12.94;100.00
32324;BME280;25666;44.350;9.222;2023-04-07T07:34:01;101671.47;;;12.73;100.00
32324;BME280;25666;44.350;9.222;2023-04-07T07:36:27;101676.19;;;12.81;100.00
32324;BME280;25666;44.350;9.222;2023-04-07T07:38:52;101668.31;;;12.95;100.00
32324;BME280;25666;44.350;9.222;2023-04-07T07:41:18;101672.88;;;13.00;100.00
32324;BME280;25666;44.350;9.222;2023-04-07T07:43:43;101663.81;;;12.82;100.00
32324;BME280;25666;44.350;9.222;2023-04-07T07:46:08;101673.16;;;12.86;100.00
32324;BME280;25666;44.350;9.222;2023-04-07T07:48:34;101666.47;;;12.99;100.00
32324;BME280;25666;44.350;9.222;2023-04-07T07:51:00;101664.59;;;13.03;100.00
32324;BME280;25666;44.350;9.222;2023-04-07T07:53:25;101664.69;;;12.95;100.00
32324;BME280;25666;44.350;9.222;2023-04-07T07:55:51;101670.53;;;13.02;100.00
32324;BME280;25666;44.350;9.222;2023-04-07T07:58:16;101662.63;;;13.04;100.00
32324;BME280;25666;44.350;9.222;2023-04-07T08:00:42;101662.00;;;13.19;100.00
32324;BME280;25666;44.350;9.222;2023-04-07T08:03:10;101665.69;;;13.44;100.00
32324;BME280;25666;44.350;9.222;2023-04-07T08:05:35;101659.28;;;13.67;100.00
32324;BME280;25666;44.350;9.222;2023-04-07T08:08:01;101661.84;;;13.84;100.00
32324;BME280;25666;44.350;9.222;2023-04-07T08:10:27;101657.16;;;14.01;100.00
32324;BME280;25666;44.350;9.222;2023-04-07T08:12:52;101650.53;;;14.05;100.00
32324;BME280;25666;44.350;9.222;2023-04-07T08:15:18;101649.94;;;14.12;100.00
32324;BME280;25666;44.350;9.222;2023-04-07T08:17:44;101655.03;;;14.10;100.00
32324;BME280;25666;44.350;9.222;2023-04-07T08:20:09;101658.56;;;13.94;100.00
32324;BME280;25666;44.350;9.222;2023-04-07T08:22:36;101652.25;;;14.10;100.00
32324;BME280;25666;44.350;9.222;2023-04-07T08:25:02;101649.44;;;14.34;100.00
32324;BME280;25666;44.350;9.222;2023-04-07T08:27:27;101653.94;;;14.51;100.00
32324;BME280;25666;44.350;9.222;2023-04-07T08:35:09;101655.84;;;15.02;100.00
32324;BME280;25666;44.350;9.222;2023-04-07T08:40:16;101658.47;;;15.11;100.00
32324;BME280;25666;44.350;9.222;2023-04-07T08:42:46;101660.13;;;15.27;100.00
32324;BME280;25666;44.350;9.222;2023-04-07T08:47:55;101664.66;;;14.88;100.00
32324;BME280;25666;44.350;9.222;2023-04-07T08:50:21;101669.53;;;14.91;100.00
32324;BME280;25666;44.350;9.222;2023-04-07T08:52:53;101668.72;;;14.63;100.00
32324;BME280;25666;44.350;9.222;2023-04-07T08:55:19;101662.00;;;14.52;100.00
32324;BME280;25666;44.350;9.222;2023-04-07T09:00:26;101668.22;;;14.73;100.00
32324;BME280;25666;44.350;9.222;2023-04-07T09:33:46;101644.97;;;15.00;100.00
32324;BME280;25666;44.350;9.222;2023-04-07T09:36:12;101647.31;;;14.98;100.00
32324;BME280;25666;44.350;9.222;2023-04-07T09:41:19;101656.56;;;14.71;100.00
32324;BME280;25666;44.350;9.222;2023-04-07T09:43:45;101646.13;;;14.56;100.00
32324;BME280;25666;44.350;9.222;2023-04-07T09:46:16;101641.94;;;14.50;100.00
32324;BME280;25666;44.350;9.222;2023-04-07T09:48:43;101641.84;;;14.46;100.00
32324;BME280;25666;44.350;9.222;2023-04-07T09:51:13;101641.56;;;14.52;100.00
32324;BME280;25666;44.350;9.222;2023-04-07T09:56:11;101629.00;;;14.73;100.00
32324;BME280;25666;44.350;9.222;2023-04-07T09:58:38;101622.72;;;14.64;100.00
32324;BME280;25666;44.350;9.222;2023-04-07T10:01:07;101619.81;;;14.88;100.00
32324;BME280;25666;44.350;9.222;2023-04-07T10:03:37;101610.75;;;14.79;100.00
32324;BME280;25666;44.350;9.222;2023-04-07T10:06:04;101604.34;;;14.94;100.00
32324;BME280;25666;44.350;9.222;2023-04-07T10:13:47;101611.91;;;15.22;100.00
32324;BME280;25666;44.350;9.222;2023-04-07T10:16:16;101601.41;;;15.19;100.00
32324;BME280;25666;44.350;9.222;2023-04-07T10:27:33;101610.44;;;14.29;100.00
32324;BME280;25666;44.350;9.222;2023-04-07T10:29:59;101603.69;;;14.30;100.00
32324;BME280;25666;44.350;9.222;2023-04-07T10:32:26;101602.66;;;14.34;100.00
32324;BME280;25666;44.350;9.222;2023-04-07T10:37:21;101599.34;;;14.44;100.00
32324;BME280;25666;44.350;9.222;2023-04-07T10:39:48;101598.06;;;14.42;100.00
32324;BME280;25666;44.350;9.222;2023-04-07T11:04:19;101579.16;;;14.39;100.00
32324;BME280;25666;44.350;9.222;2023-04-07T11:06:46;101584.88;;;14.03;100.00
32324;BME280;25666;44.350;9.222;2023-04-07T11:09:18;101579.50;;;13.85;100.00
32324;BME280;25666;44.350;9.222;2023-04-07T11:19:52;101567.69;;;13.28;100.00
32324;BME280;25666;44.350;9.222;2023-04-07T11:22:21;101570.69;;;13.23;100.00
32324;BME280;25666;44.350;9.222;2023-04-07T11:27:28;101564.63;;;13.21;100.00
32324;BME280;25666;44.350;9.222;2023-04-07T11:32:24;101550.06;;;13.15;100.00
32324;BME280;25666;44.350;9.222;2023-04-07T11:34:52;101551.00;;;13.19;100.00
32324;BME280;25666;44.350;9.222;2023-04-07T11:39:50;101558.22;;;13.20;100.00
32324;BME280;25666;44.350;9.222;2023-04-07T11:42:33;101564.84;;;13.16;100.00
32324;BME280;25666;44.350;9.222;2023-04-07T11:44:59;101567.84;;;12.99;100.00
32324;BME280;25666;44.350;9.222;2023-04-07T11:47:38;101572.84;;;12.93;100.00
32324;BME280;25666;44.350;9.222;2023-04-07T11:50:05;101566.00;;;12.70;100.00
32324;BME280;25666;44.350;9.222;2023-04-07T11:52:45;101570.91;;;12.73;100.00
32324;BME280;25666;44.350;9.222;2023-04-07T11:55:21;101574.75;;;12.68;100.00
32324;BME280;25666;44.350;9.222;2023-04-07T11:57:49;101577.28;;;12.61;100.00
32324;BME280;25666;44.350;9.222;2023-04-07T12:00:16;101573.66;;;12.61;100.00
32324;BME280;25666;44.350;9.222;2023-04-07T12:13:59;101569.38;;;12.30;100.00
32324;BME280;25666;44.350;9.222;2023-04-07T12:16:24;101570.56;;;12.42;100.00
32324;BME280;25666;44.350;9.222;2023-04-07T12:18:51;101567.56;;;12.47;100.00
32324;BME280;25666;44.350;9.222;2023-04-07T12:21:17;101569.28;;;12.39;100.00
32324;BME280;25666;44.350;9.222;2023-04-07T12:23:43;101577.78;;;12.22;100.00
32324;BME280;25666;44.350;9.222;2023-04-07T12:26:09;101573.31;;;12.29;100.00
32324;BME280;25666;44.350;9.222;2023-04-07T12:28:36;101573.72;;;12.19;100.00
32324;BME280;25666;44.350;9.222;2023-04-07T12:33:32;101572.66;;;12.12;100.00
32324;BME280;25666;44.350;9.222;2023-04-07T12:35:57;101554.66;;;12.21;100.00
32324;BME280;25666;44.350;9.222;2023-04-07T12:38:23;101551.19;;;12.24;100.00
32324;BME280;25666;44.350;9.222;2023-04-07T12:40:59;101547.91;;;12.22;100.00
32324;BME280;25666;44.350;9.222;2023-04-07T12:43:31;101560.66;;;12.11;100.00
32324;BME280;25666;44.350;9.222;2023-04-07T12:45:56;101551.09;;;12.12;100.00
32324;BME280;25666;44.350;9.222;2023-04-07T12:48:22;101549.22;;;12.04;100.00
32324;BME280;25666;44.350;9.222;2023-04-07T12:50:48;101546.34;;;12.13;100.00
32324;BME280;25666;44.350;9.222;2023-04-07T12:55:57;101558.34;;;12.13;100.00
32324;BME280;25666;44.350;9.222;2023-04-07T12:58:23;101556.78;;;12.04;100.00
32324;BME280;25666;44.350;9.222;2023-04-07T13:03:39;101580.94;;;12.20;100.00
32324;BME280;25666;44.350;9.222;2023-04-07T13:06:05;101550.91;;;11.76;100.00
32324;BME280;25666;44.350;9.222;2023-04-07T13:08:30;101541.31;;;11.86;100.00
32324;BME280;25666;44.350;9.222;2023-04-07T13:10:59;101533.84;;;11.77;100.00
32324;BME280;25666;44.350;9.222;2023-04-07T13:16:13;101542.19;;;11.48;100.00
32324;BME280;25666;44.350;9.222;2023-04-07T13:18:39;101528.72;;;11.50;100.00
32324;BME280;25666;44.350;9.222;2023-04-07T13:21:06;101532.03;;;11.52;100.00
32324;BME280;25666;44.350;9.222;2023-04-07T13:23:31;101538.41;;;11.23;100.00
32324;BME280;25666;44.350;9.222;2023-04-07T15:16:36;101601.94;;;9.63;100.00
32324;BME280;25666;44.350;9.222;2023-04-07T15:21:34;101586.66;;;9.44;100.00
32324;BME280;25666;44.350;9.222;2023-04-07T16:10:48;101478.16;;;10.26;100.00
32324;BME280;25666;44.350;9.222;2023-04-07T16:13:13;101478.16;;;10.17;100.00
32324;BME280;25666;44.350;9.222;2023-04-07T16:15:39;101478.63;;;10.37;100.00
32324;BME280;25666;44.350;9.222;2023-04-07T16:18:07;101470.44;;;10.32;100.00
32324;BME280;25666;44.350;9.222;2023-04-07T16:20:35;101475.19;;;10.40;100.00
32324;BME280;25666;44.350;9.222;2023-04-07T16:23:01;101463.19;;;10.48;100.00
32324;BME280;25666;44.350;9.222;2023-04-07T16:25:27;101457.97;;;10.38;100.00
32324;BME280;25666;44.350;9.222;2023-04-07T16:27:52;101457.16;;;10.46;100.00
32324;BME280;25666;44.350;9.222;2023-04-07T16:30:18;101453.28;;;10.21;100.00
32324;BME280;25666;44.350;9.222;2023-04-07T16:32:44;101449.81;;;10.33;100.00
32324;BME280;25666;44.350;9.222;2023-04-07T16:35:12;101451.78;;;10.32;100.00
32324;BME280;25666;44.350;9.222;2023-04-07T16:37:39;101448.81;;;10.46;100.00
32324;BME280;25666;44.350;9.222;2023-04-07T16:40:09;101450.13;;;10.31;100.00
32324;BME280;25666;44.350;9.222;2023-04-07T16:42:35;101438.84;;;10.28;100.00
32324;BME280;25666;44.350;9.222;2023-04-07T16:45:01;101440.00;;;10.18;100.00
32324;BME280;25666;44.350;9.222;2023-04-07T16:47:28;101431.47;;;10.32;100.00
32324;BME280;25666;44.350;9.222;2023-04-07T16:55:21;101440.72;;;10.53;100.00
32324;BME280;25666;44.350;9.222;2023-04-07T16:57:46;101441.72;;;10.57;100.00
32324;BME280;25666;44.350;9.222;2023-04-07T17:00:13;101444.53;;;10.48;100.00
32324;BME280;25666;44.350;9.222;2023-04-07T17:02:39;101433.97;;;10.62;100.00
32324;BME280;25666;44.350;9.222;2023-04-07T17:05:04;101433.81;;;10.59;100.00
32324;BME280;25666;44.350;9.222;2023-04-07T17:07:30;101431.53;;;10.61;100.00
32324;BME280;25666;44.350;9.222;2023-04-07T17:09:56;101434.44;;;10.73;100.00
32324;BME280;25666;44.350;9.222;2023-04-07T17:12:21;101432.13;;;10.75;100.00
32324;BME280;25666;44.350;9.222;2023-04-07T17:14:47;101428.50;;;10.83;100.00
32324;BME280;25666;44.350;9.222;2023-04-07T17:17:12;101428.19;;;10.76;100.00
32324;BME280;25666;44.350;9.222;2023-04-07T17:19:38;101430.94;;;10.85;100.00
32324;BME280;25666;44.350;9.222;2023-04-07T17:22:03;101428.97;;;10.85;100.00
32324;BME280;25666;44.350;9.222;2023-04-07T17:26:58;101440.31;;;10.80;100.00
32324;BME280;25666;44.350;9.222;2023-04-07T17:29:23;101449.19;;;10.73;100.00
32324;BME280;25666;44.350;9.222;2023-04-07T17:31:54;101452.94;;;10.69;100.00
32324;BME280;25666;44.350;9.222;2023-04-07T17:34:22;101453.97;;;10.64;100.00
32324;BME280;25666;44.350;9.222;2023-04-07T17:36:48;101463.50;;;10.55;100.00
32324;BME280;25666;44.350;9.222;2023-04-07T17:39:14;101458.47;;;10.40;100.00
32324;BME280;25666;44.350;9.222;2023-04-07T17:41:40;101452.41;;;10.38;100.00
32324;BME280;25666;44.350;9.222;2023-04-07T17:44:06;101462.06;;;10.40;100.00
32324;BME280;25666;44.350;9.222;2023-04-07T17:46:31;101455.53;;;10.36;100.00
32324;BME280;25666;44.350;9.222;2023-04-07T17:48:57;101460.59;;;10.34;100.00
32324;BME280;25666;44.350;9.222;2023-04-07T17:51:24;101453.25;;;10.30;100.00
32324;BME280;25666;44.350;9.222;2023-04-07T17:53:50;101466.19;;;10.26;100.00
32324;BME280;25666;44.350;9.222;2023-04-07T17:56:16;101465.06;;;10.18;100.00
32324;BME280;25666;44.350;9.222;2023-04-07T17:58:42;101471.91;;;10.12;100.00
32324;BME280;25666;44.350;9.222;2023-04-07T18:01:07;101475.69;;;9.99;100.00
32324;BME280;25666;44.350;9.222;2023-04-07T18:03:35;101477.81;;;9.93;100.00
32324;BME280;25666;44.350;9.222;2023-04-07T18:06:00;101472.59;;;9.75;100.00
32324;BME280;25666;44.350;9.222;2023-04-07T18:08:26;101479.63;;;9.72;100.00
32324;BME280;25666;44.350;9.222;2023-04-07T18:10:52;101482.41;;;9.72;100.00
32324;BME280;25666;44.350;9.222;2023-04-07T18:13:17;101481.41;;;9.59;100.00
32324;BME280;25666;44.350;9.222;2023-04-07T18:15:43;101492.69;;;9.54;100.00
32324;BME280;25666;44.350;9.222;2023-04-07T18:18:09;101499.34;;;9.28;100.00
32324;BME280;25666;44.350;9.222;2023-04-07T18:20:34;101498.84;;;9.26;100.00
32324;BME280;25666;44.350;9.222;2023-04-07T18:23:00;101513.06;;;9.24;100.00
32324;BME280;25666;44.350;9.222;2023-04-07T18:28:18;101517.75;;;9.15;100.00
32324;BME280;25666;44.350;9.222;2023-04-07T18:30:44;101520.91;;;9.31;100.00
32324;BME280;25666;44.350;9.222;2023-04-07T18:33:10;101524.53;;;9.31;100.00
32324;BME280;25666;44.350;9.222;2023-04-07T18:35:35;101522.06;;;9.30;100.00
32324;BME280;25666;44.350;9.222;2023-04-07T18:38:01;101521.09;;;9.34;100.00
32324;BME280;25666;44.350;9.222;2023-04-07T18:40:28;101527.31;;;9.40;100.00
32324;BME280;25666;44.350;9.222;2023-04-07T18:42:56;101523.22;;;9.37;100.00
32324;BME280;25666;44.350;9.222;2023-04-07T18:45:22;101527.31;;;9.40;100.00
32324;BME280;25666;44.350;9.222;2023-04-07T18:47:47;101534.03;;;9.39;100.00